createdAt,value
2022-08-10T00:01:51.390Z,102857.19
2022-08-10T00:04:22.225Z,102865.09
2022-08-10T00:06:52.909Z,102854.53
2022-08-10T00:09:23.237Z,102858.03
2022-08-10T00:11:51.826Z,102867.72
2022-08-10T00:14:20.129Z,102860.66
2022-08-10T00:16:48.768Z,102867.72
2022-08-10T00:19:18.151Z,102859.75
2022-08-10T00:21:46.649Z,102865.91
2022-08-10T00:24:15.257Z,102870.34
2022-08-10T00:27:57.800Z,102867.69
2022-08-10T00:29:33.630Z,102858.81
2022-08-10T00:32:01.943Z,102862.38
2022-08-10T00:34:30.996Z,102858.81
2022-08-10T00:37:00.476Z,102863.19
2022-08-10T00:39:30.048Z,102860.53
2022-08-10T00:42:08.243Z,102858.78
2022-08-10T00:44:40.242Z,102855.22
2022-08-10T00:47:21.389Z,102865.81
2022-08-10T00:49:58.987Z,102870.22
2022-08-10T00:52:32.180Z,102868.47
2022-08-10T00:55:02.865Z,102864.03
2022-08-10T00:57:33.815Z,102859.59
2022-08-10T01:00:02.129Z,102864.88
2022-08-10T01:02:32.818Z,102859.56
2022-08-10T01:05:07.684Z,102863.06
2022-08-10T01:07:51.281Z,102860.38
2022-08-10T01:10:35.849Z,102855.97
2022-08-10T01:13:13.190Z,102868.31
2022-08-10T01:15:54.316Z,102863.84
2022-08-10T01:18:37.765Z,102864.72
2022-08-10T01:21:30.891Z,102862.91
2022-08-10T01:24:23.209Z,102856.69
2022-08-10T01:27:28.282Z,102853.97
2022-08-10T01:30:08.271Z,102846.00
2022-08-10T01:32:45.405Z,102857.44
2022-08-10T01:35:18.887Z,102853.91
2022-08-10T01:37:55.438Z,102845.97
2022-08-10T01:40:26.534Z,102846.84
2022-08-10T01:42:59.800Z,102842.47
2022-08-10T01:45:46.126Z,102849.53
2022-08-10T01:48:31.091Z,102846.00
2022-08-10T01:51:10.840Z,102853.06
2022-08-10T01:53:43.502Z,102849.53
2022-08-10T01:56:16.450Z,102846.94
2022-08-10T01:58:47.999Z,102846.13
2022-08-10T02:01:21.330Z,102848.81
2022-08-10T02:04:03.979Z,102845.28
2022-08-10T02:06:38.381Z,102840.91
2022-08-10T02:09:09.024Z,102846.19
2022-08-10T02:12:05.672Z,102840.03
2022-08-10T02:14:34.457Z,102837.38
2022-08-10T02:17:58.582Z,102842.69
2022-08-10T02:20:05.130Z,102837.34
2022-08-10T02:22:38.886Z,102840.03
2022-08-10T02:25:39.810Z,102839.16
2022-08-10T02:27:59.854Z,102839.16
2022-08-10T02:30:30.069Z,102837.41
2022-08-10T02:33:00.462Z,102833.91
2022-08-10T02:35:33.459Z,102834.75
2022-08-10T02:38:23.165Z,102830.34
2022-08-10T02:45:17.886Z,102826.81
2022-08-10T02:45:25.519Z,102828.59
2022-08-10T02:47:09.184Z,102829.47
2022-08-10T02:49:43.096Z,102824.19
2022-08-10T02:52:20.263Z,102827.72
2022-08-10T02:54:53.655Z,102822.44
2022-08-10T02:57:28.822Z,102818.91
2022-08-10T03:00:03.407Z,102821.56
2022-08-10T03:02:36.758Z,102816.28
2022-08-10T03:05:12.144Z,102822.44
2022-08-10T03:07:47.071Z,102823.31
2022-08-10T03:10:19.058Z,102827.72
2022-08-10T03:12:51.505Z,102826.81
2022-08-10T03:15:22.166Z,102821.50
2022-08-10T03:17:58.207Z,102817.09
2022-08-10T03:20:38.662Z,102822.41
2022-08-10T03:23:12.770Z,102822.38
2022-08-10T03:25:53.017Z,102815.28
2022-08-10T03:28:24.584Z,102810.84
2022-08-10T03:30:54.008Z,102813.53
2022-08-10T03:33:23.388Z,102807.34
2022-08-10T03:36:40.004Z,102810.91
2022-08-10T03:38:43.613Z,102810.00
2022-08-10T03:41:16.197Z,102804.69
2022-08-10T03:43:48.193Z,102808.22
2022-08-10T03:46:20.263Z,102801.16
2022-08-10T03:48:52.703Z,102796.72
2022-08-10T03:51:23.927Z,102798.53
2022-08-10T03:54:05.770Z,102797.66
2022-08-10T03:56:37.557Z,102805.59
2022-08-10T03:59:07.315Z,102806.47
2022-08-10T04:02:46.488Z,102813.53
2022-08-10T04:04:25.634Z,102811.78
2022-08-10T04:06:58.178Z,102812.66
2022-08-10T04:09:54.304Z,102811.78
2022-08-10T04:12:20.026Z,102822.38
2022-08-10T04:14:50.924Z,102812.66
2022-08-10T04:18:04.946Z,102816.22
2022-08-10T04:20:18.115Z,102812.72
2022-08-10T04:22:52.620Z,102816.22
2022-08-10T04:25:22.492Z,102814.50
2022-08-10T04:27:51.832Z,102809.22
2022-08-10T04:30:20.613Z,102809.25
2022-08-10T04:32:53.984Z,102810.13
2022-08-10T04:35:24.051Z,102807.50
2022-08-10T04:37:57.442Z,102809.25
2022-08-10T04:40:30.127Z,102809.25
2022-08-10T04:43:11.685Z,102796.91
2022-08-10T04:45:47.674Z,102803.97
2022-08-10T04:48:40.393Z,102799.56
2022-08-10T04:51:10.792Z,102795.19
2022-08-10T04:54:05.771Z,102800.50
2022-08-10T04:56:33.952Z,102800.53
2022-08-10T04:59:02.167Z,102799.66
2022-08-10T05:02:21.125Z,102800.59
2022-08-10T05:04:36.985Z,102799.75
2022-08-10T05:07:15.889Z,102805.97
2022-08-10T05:10:02.511Z,102806.03
2022-08-10T05:12:31.875Z,102808.72
2022-08-10T05:15:00.079Z,102811.41
2022-08-10T05:17:28.329Z,102816.72
2022-08-10T05:20:04.954Z,102822.06
2022-08-10T05:22:36.747Z,102823.91
2022-08-10T05:25:10.170Z,102818.63
2022-08-10T05:27:39.603Z,102828.41
2022-08-10T05:30:09.823Z,102829.34
2022-08-10T05:32:56.913Z,102831.13
2022-08-10T05:35:27.665Z,102828.50
2022-08-10T05:38:11.510Z,102820.56
2022-08-10T05:40:47.283Z,102828.53
2022-08-10T05:43:19.037Z,102833.00
2022-08-10T05:46:18.286Z,102832.13
2022-08-10T05:48:41.656Z,102830.38
2022-08-10T05:51:27.849Z,102824.19
2022-08-10T05:54:02.031Z,102830.38
2022-08-10T05:56:56.982Z,102828.63
2022-08-10T06:00:29.376Z,102816.22
2022-08-10T06:02:30.722Z,102818.84
2022-08-10T06:05:12.495Z,102822.38
2022-08-10T06:07:46.214Z,102829.44
2022-08-10T06:10:31.629Z,102832.09
2022-08-10T06:13:30.907Z,102832.97
2022-08-10T06:16:06.961Z,102825.84
2022-08-10T06:18:35.221Z,102823.19
2022-08-10T06:21:04.438Z,102824.06
2022-08-10T06:23:34.199Z,102820.47
2022-08-10T06:26:11.182Z,102823.97
2022-08-10T06:28:53.110Z,102824.81
2022-08-10T06:31:48.137Z,102823.84
2022-08-10T06:34:22.467Z,102815.78
2022-08-10T06:36:52.903Z,102818.38
2022-08-10T06:39:37.764Z,102821.88
2022-08-10T06:42:17.982Z,102822.75
2022-08-10T06:44:56.746Z,102824.50
2022-08-10T06:47:31.477Z,102818.19
2022-08-10T06:50:08.756Z,102814.56
2022-08-10T06:52:39.377Z,102814.47
2022-08-10T06:55:12.305Z,102820.63
2022-08-10T06:58:00.194Z,102824.09
2022-08-10T07:00:34.521Z,102821.34
2022-08-10T07:03:10.675Z,102830.16
2022-08-10T07:05:50.979Z,102824.75
2022-08-10T07:08:22.366Z,102827.31
2022-08-10T07:10:52.827Z,102817.41
2022-08-10T07:14:14.626Z,102819.03
2022-08-10T07:16:14.607Z,102830.50
2022-08-10T07:18:44.558Z,102825.06
2022-08-10T07:21:15.192Z,102832.09
2022-08-10T07:23:56.830Z,102827.53
2022-08-10T07:26:30.198Z,102838.09
2022-08-10T07:28:59.838Z,102828.28
2022-08-10T07:31:55.236Z,102833.50
2022-08-10T07:34:28.547Z,102836.00
2022-08-10T07:37:02.250Z,102839.44
2022-08-10T07:40:03.789Z,102832.19
2022-08-10T07:42:23.897Z,102832.91
2022-08-10T07:44:52.404Z,102834.47
2022-08-10T07:47:52.938Z,102824.50
2022-08-10T07:50:24.447Z,102828.75
2022-08-10T07:52:54.919Z,102831.25
2022-08-10T07:56:04.635Z,102826.66
2022-08-10T07:58:13.422Z,102836.31
2022-08-10T08:00:43.032Z,102840.50
2022-08-10T08:03:15.027Z,102841.16
2022-08-10T08:06:02.530Z,102848.09
2022-08-10T08:08:34.630Z,102852.31
2022-08-10T08:11:04.174Z,102847.63
2022-08-10T08:13:32.965Z,102843.84
2022-08-10T08:16:17.880Z,102840.94
2022-08-10T08:19:23.566Z,102845.13
2022-08-10T08:24:07.954Z,102838.56
2022-08-10T08:24:35.000Z,102840.09
2022-08-10T08:27:04.653Z,102839.84
2022-08-10T08:29:36.787Z,102843.13
2022-08-10T08:32:06.846Z,102834.84
2022-08-10T08:34:40.383Z,102842.59
2022-08-10T08:37:12.340Z,102840.59
2022-08-10T08:39:48.432Z,102835.75
2022-08-10T08:42:54.364Z,102838.16
2022-08-10T08:45:31.554Z,102836.09
2022-08-10T08:48:39.262Z,102825.97
2022-08-10T08:52:08.285Z,102827.50
2022-08-10T08:54:23.291Z,102831.75
2022-08-10T08:57:04.395Z,102831.44
2022-08-10T08:59:51.149Z,102824.78
2022-08-10T09:02:40.716Z,102825.41
2022-08-10T09:05:29.531Z,102819.75
2022-08-10T09:08:27.497Z,102815.78
2022-08-10T09:11:01.925Z,102811.94
2022-08-10T09:13:36.055Z,102808.00
2022-08-10T09:16:24.657Z,102810.53
2022-08-10T09:19:03.509Z,102806.81
2022-08-10T09:21:52.331Z,102802.97
2022-08-10T09:24:49.834Z,102805.03
2022-08-10T09:27:22.427Z,102806.41
2022-08-10T09:29:59.175Z,102808.69
2022-08-10T09:36:16.930Z,102805.53
2022-08-10T09:36:19.797Z,102801.56
2022-08-10T09:38:42.286Z,102796.78
2022-08-10T09:41:27.105Z,102798.19
2022-08-10T09:44:08.953Z,102794.38
2022-08-10T09:47:10.021Z,102793.09
2022-08-10T09:49:56.347Z,102796.34
2022-08-10T09:52:41.790Z,102796.75
2022-08-10T09:55:18.579Z,102786.63
2022-08-10T09:57:59.916Z,102787.22
2022-08-10T10:00:36.621Z,102784.84
2022-08-10T10:03:17.801Z,102773.69
2022-08-10T10:06:01.591Z,102777.72
2022-08-10T10:08:42.827Z,102775.47
2022-08-10T10:11:18.978Z,102768.75
2022-08-10T10:14:06.400Z,102768.31
2022-08-10T10:17:03.045Z,102768.66
2022-08-10T10:19:55.234Z,102760.97
2022-08-10T10:22:43.762Z,102748.22
2022-08-10T10:25:24.675Z,102759.56
2022-08-10T10:28:44.473Z,102743.84
2022-08-10T10:31:29.373Z,102745.19
2022-08-10T10:34:10.374Z,102737.59
2022-08-10T10:36:41.512Z,102741.72
2022-08-10T10:39:13.730Z,102740.25
2022-08-10T10:42:03.650Z,102734.41
2022-08-10T10:44:54.403Z,102729.50
2022-08-10T10:47:46.268Z,102736.28
2022-08-10T10:50:20.542Z,102732.34
2022-08-10T10:52:59.607Z,102732.00
2022-08-10T10:56:13.592Z,102729.09
2022-08-10T10:58:29.476Z,102717.69
2022-08-10T11:01:08.583Z,102726.06
2022-08-10T11:03:54.014Z,102731.91
2022-08-10T11:06:50.873Z,102728.25
2022-08-10T11:10:03.440Z,102730.72
2022-08-10T11:12:26.275Z,102723.03
2022-08-10T11:15:05.038Z,102718.25
2022-08-10T11:17:41.682Z,102717.84
2022-08-10T11:20:16.976Z,102718.50
2022-08-10T11:23:04.267Z,102712.84
2022-08-10T11:25:35.426Z,102700.72
2022-08-10T11:28:10.565Z,102702.16
2022-08-10T11:30:47.717Z,102712.69
2022-08-10T11:33:30.745Z,102700.63
2022-08-10T11:36:08.594Z,102695.06
2022-08-10T11:39:12.626Z,102694.41
2022-08-10T11:42:07.823Z,102688.81
2022-08-10T11:44:39.424Z,102686.81
2022-08-10T11:47:13.361Z,102693.44
2022-08-10T11:49:50.297Z,102686.63
2022-08-10T11:52:29.758Z,102682.25
2022-08-10T11:55:06.215Z,102678.31
2022-08-10T11:57:54.482Z,102680.97
2022-08-10T12:00:23.219Z,102671.75
2022-08-10T12:02:56.609Z,102682.78
2022-08-10T12:05:48.265Z,102671.75
2022-08-10T12:10:04.573Z,102678.03
2022-08-10T12:11:12.587Z,102672.06
2022-08-10T12:14:20.111Z,102670.34
2022-08-10T12:16:51.376Z,102660.03
2022-08-10T12:19:28.953Z,102657.13
2022-08-10T12:22:06.079Z,102654.34
2022-08-10T12:24:43.693Z,102648.53
2022-08-10T12:27:17.799Z,102647.75
2022-08-10T12:29:51.834Z,102656.44
2022-08-10T12:32:30.502Z,102649.22
2022-08-10T12:35:26.578Z,102651.81
2022-08-10T12:38:07.002Z,102646.97
2022-08-10T12:40:44.416Z,102643.13
2022-08-10T12:44:07.700Z,102639.72
2022-08-10T12:46:13.841Z,102633.28
2022-08-10T12:48:53.135Z,102638.34
2022-08-10T12:51:24.643Z,102639.16
2022-08-10T12:53:58.755Z,102628.78
2022-08-10T12:56:32.560Z,102631.53
2022-08-10T12:59:05.560Z,102632.22
2022-08-10T13:02:09.903Z,102626.56
2022-08-10T13:04:33.078Z,102620.09
2022-08-10T13:07:03.853Z,102621.38
2022-08-10T13:09:33.832Z,102612.16
2022-08-10T13:12:38.460Z,102605.81
2022-08-10T13:15:31.050Z,102606.53
2022-08-10T13:18:18.702Z,102608.63
2022-08-10T13:20:53.744Z,102601.88
2022-08-10T13:23:26.899Z,102596.72
2022-08-10T13:25:59.625Z,102591.66
2022-08-10T13:28:43.276Z,102597.06
2022-08-10T13:31:19.403Z,102591.38
2022-08-10T13:34:41.300Z,102588.16
2022-08-10T13:36:43.089Z,102580.09
2022-08-10T13:39:13.943Z,102579.06
2022-08-10T13:41:45.417Z,102577.69
2022-08-10T13:44:30.726Z,102583.91
2022-08-10T13:46:59.476Z,102577.31
2022-08-10T13:49:30.692Z,102574.50
2022-08-10T13:51:59.721Z,102581.56
2022-08-10T13:54:30.812Z,102576.94
2022-08-10T13:57:00.354Z,102567.34
2022-08-10T14:00:36.328Z,102567.97
2022-08-10T14:02:28.200Z,102576.41
2022-08-10T14:04:59.221Z,102569.03
2022-08-10T14:07:29.144Z,102556.53
2022-08-10T14:10:07.217Z,102557.28
2022-08-10T14:12:38.071Z,102564.25
2022-08-10T14:15:13.162Z,102557.00
2022-08-10T14:17:45.165Z,102549.91
2022-08-10T14:20:21.319Z,102544.66
2022-08-10T14:22:50.365Z,102540.66
2022-08-10T14:25:18.650Z,102539.44
2022-08-10T14:28:02.855Z,102533.22
2022-08-10T14:30:34.433Z,102534.09
2022-08-10T14:33:05.189Z,102526.94
2022-08-10T14:36:20.785Z,102526.91
2022-08-10T14:38:32.027Z,102524.06
2022-08-10T14:41:03.827Z,102529.66
2022-08-10T14:43:41.063Z,102527.16
2022-08-10T14:46:19.904Z,102527.59
2022-08-10T14:48:52.573Z,102529.72
2022-08-10T14:51:27.808Z,102525.44
2022-08-10T14:54:15.903Z,102525.91
2022-08-10T14:56:48.803Z,102526.78
2022-08-10T14:59:18.727Z,102520.78
2022-08-10T15:02:00.158Z,102514.31
2022-08-10T15:04:47.846Z,102519.81
2022-08-10T15:07:22.120Z,102512.03
2022-08-10T15:10:00.594Z,102514.16
2022-08-10T15:12:34.628Z,102511.16
2022-08-10T15:15:06.258Z,102510.94
2022-08-10T15:17:39.601Z,102511.88
2022-08-10T15:20:20.725Z,102512.50
2022-08-10T15:22:54.136Z,102510.97
2022-08-10T15:25:26.430Z,102500.47
2022-08-10T15:28:09.534Z,102503.13
2022-08-10T15:30:42.836Z,102499.41
2022-08-10T15:34:03.463Z,102489.06
2022-08-10T15:36:44.099Z,102489.19
2022-08-10T15:40:21.786Z,102485.03
2022-08-10T15:42:21.941Z,102489.75
2022-08-10T15:44:54.918Z,102486.94
2022-08-10T15:47:27.321Z,102494.53
2022-08-10T15:50:22.506Z,102486.09
2022-08-10T15:53:02.614Z,102490.53
2022-08-10T15:55:43.165Z,102488.06
2022-08-10T15:58:37.503Z,102491.69
2022-08-10T16:02:04.454Z,102475.75
2022-08-10T16:04:08.409Z,102472.13
2022-08-10T16:06:43.898Z,102484.88
2022-08-10T16:10:22.197Z,102482.66
2022-08-10T16:12:14.662Z,102479.97
2022-08-10T16:14:49.077Z,102482.00
2022-08-10T16:17:18.986Z,102474.94
2022-08-10T16:19:51.129Z,102473.59
2022-08-10T16:22:35.794Z,102463.69
2022-08-10T16:25:15.634Z,102468.34
2022-08-10T16:27:45.126Z,102465.13
2022-08-10T16:30:14.907Z,102460.31
2022-08-10T16:32:46.648Z,102452.97
2022-08-10T16:35:18.991Z,102455.28
2022-08-10T16:37:58.939Z,102448.50
2022-08-10T16:40:29.588Z,102447.25
2022-08-10T16:43:00.151Z,102449.81
2022-08-10T16:45:38.713Z,102448.09
2022-08-10T16:48:08.880Z,102451.84
2022-08-10T16:50:45.313Z,102438.50
2022-08-10T16:53:18.591Z,102436.84
2022-08-10T16:55:51.201Z,102434.72
2022-08-10T16:58:27.303Z,102440.31
2022-08-10T17:01:05.365Z,102434.72
2022-08-10T17:04:06.568Z,102429.41
2022-08-10T17:06:34.868Z,102436.81
2022-08-10T17:09:08.213Z,102433.69
2022-08-10T17:11:41.460Z,102429.44
2022-08-10T17:14:10.903Z,102427.94
2022-08-10T17:16:44.085Z,102420.41
2022-08-10T17:19:15.532Z,102423.41
2022-08-10T17:21:52.384Z,102420.06
2022-08-10T17:24:28.784Z,102421.34
2022-08-10T17:28:04.089Z,102420.47
2022-08-10T17:30:03.271Z,102417.03
2022-08-10T17:32:44.310Z,102410.75
2022-08-10T17:35:23.135Z,102397.66
2022-08-10T17:37:58.039Z,102405.69
2022-08-10T17:40:29.902Z,102412.50
2022-08-10T17:42:59.655Z,102410.31
2022-08-10T17:45:48.720Z,102403.09
2022-08-10T17:48:26.716Z,102411.63
2022-08-10T17:50:57.608Z,102404.88
2022-08-10T17:53:37.063Z,102408.59
2022-08-10T17:56:08.167Z,102410.22
2022-08-10T17:58:37.101Z,102402.28
2022-08-10T18:01:41.239Z,102406.09
2022-08-10T18:04:14.241Z,102399.59
2022-08-10T18:06:55.676Z,102402.75
2022-08-10T18:09:32.116Z,102400.63
2022-08-10T18:12:10.444Z,102398.19
2022-08-10T18:14:49.653Z,102399.81
2022-08-10T18:17:22.651Z,102406.06
2022-08-10T18:19:55.543Z,102408.31
2022-08-10T18:22:26.146Z,102403.72
2022-08-10T18:24:55.803Z,102402.72
2022-08-10T18:28:00.937Z,102406.13
2022-08-10T18:30:16.999Z,102407.31
2022-08-10T18:32:54.420Z,102405.34
2022-08-10T18:35:34.710Z,102404.38
2022-08-10T18:38:05.736Z,102414.41
2022-08-10T18:40:37.138Z,102409.22
2022-08-10T18:44:05.646Z,102412.44
2022-08-10T18:46:01.126Z,102416.22
2022-08-10T18:48:42.114Z,102417.31
2022-08-10T18:51:13.119Z,102414.91
2022-08-10T18:53:48.348Z,102422.69
2022-08-10T18:56:33.556Z,102420.22
2022-08-10T18:59:35.117Z,102423.28
2022-08-10T19:02:28.716Z,102428.06
2022-08-10T19:05:30.105Z,102427.00
2022-08-10T19:08:35.681Z,102436.69
2022-08-10T19:11:13.009Z,102434.69
2022-08-10T19:13:54.303Z,102439.66
2022-08-10T19:16:37.366Z,102448.06
2022-08-10T19:19:23.075Z,102448.44
2022-08-10T19:22:02.296Z,102447.75
2022-08-10T19:24:48.654Z,102449.81
2022-08-10T19:27:37.034Z,102450.13
2022-08-10T19:30:13.328Z,102451.94
2022-08-10T19:33:04.158Z,102446.63
2022-08-10T19:36:03.452Z,102445.69
2022-08-10T19:38:49.604Z,102443.75
2022-08-10T19:41:40.374Z,102448.00
2022-08-10T19:44:22.442Z,102447.84
2022-08-10T19:46:58.214Z,102457.22
2022-08-10T19:49:42.842Z,102454.25
2022-08-10T19:52:22.568Z,102456.53
2022-08-10T19:55:02.186Z,102456.13
2022-08-10T19:57:36.922Z,102453.84
2022-08-10T20:00:19.522Z,102463.97
2022-08-10T20:03:07.874Z,102461.00
2022-08-10T20:06:18.341Z,102465.00
2022-08-10T20:08:53.977Z,102462.69
2022-08-10T20:11:45.862Z,102467.47
2022-08-10T20:14:22.963Z,102467.81
2022-08-10T20:16:56.565Z,102464.47
2022-08-10T20:19:53.171Z,102466.53
2022-08-10T20:22:30.438Z,102465.09
2022-08-10T20:25:07.375Z,102460.03
2022-08-10T20:28:00.139Z,102468.25
2022-08-10T20:30:33.197Z,102458.72
2022-08-10T20:33:11.567Z,102464.31
2022-08-10T20:35:50.390Z,102462.75
2022-08-10T20:38:28.855Z,102463.84
2022-08-10T20:41:13.596Z,102462.28
2022-08-10T20:43:57.680Z,102461.63
2022-08-10T20:46:34.856Z,102468.97
2022-08-10T20:49:11.782Z,102470.03
2022-08-10T20:51:57.978Z,102467.56
2022-08-10T20:54:43.401Z,102470.44
2022-08-10T20:57:54.586Z,102471.50
2022-08-10T21:00:27.140Z,102471.63
2022-08-10T21:03:36.030Z,102470.97
2022-08-10T21:06:47.596Z,102474.72
2022-08-10T21:09:37.992Z,102474.00
2022-08-10T21:12:50.555Z,102479.53
2022-08-10T21:15:41.944Z,102469.00
2022-08-10T21:18:27.834Z,102468.25
2022-08-10T21:21:10.530Z,102469.25
2022-08-10T21:23:50.318Z,102472.03
2022-08-10T21:26:29.451Z,102471.25
2022-08-10T21:29:21.356Z,102473.13
2022-08-10T21:32:07.205Z,102461.72
2022-08-10T21:35:01.252Z,102462.78
2022-08-10T21:37:40.005Z,102476.16
2022-08-10T21:40:36.095Z,102470.09
2022-08-10T21:43:44.447Z,102475.53
2022-08-10T21:46:54.841Z,102473.91
2022-08-10T21:49:57.315Z,102475.81
2022-08-10T21:53:00.894Z,102468.81
2022-08-10T21:56:04.521Z,102470.69
2022-08-10T21:59:05.292Z,102469.06
2022-08-10T22:01:56.959Z,102475.34
2022-08-10T22:04:44.760Z,102472.75
2022-08-10T22:07:36.567Z,102465.72
2022-08-10T22:10:25.929Z,102472.94
2022-08-10T22:13:19.652Z,102458.78
2022-08-10T22:16:11.985Z,102462.44
2022-08-10T22:19:03.581Z,102459.84
2022-08-10T22:22:06.004Z,102459.97
2022-08-10T22:25:17.517Z,102463.63
2022-08-10T22:28:17.724Z,102466.31
2022-08-10T22:31:32.263Z,102459.28
2022-08-10T22:34:35.358Z,102460.25
2022-08-10T22:37:38.636Z,102461.25
2022-08-10T22:40:32.569Z,102459.53
2022-08-10T22:43:31.082Z,102464.91
2022-08-10T22:46:32.852Z,102465.91
2022-08-10T22:49:00.305Z,102470.34
2022-08-10T22:51:53.928Z,102469.56
2022-08-10T22:54:46.042Z,102466.06
2022-08-10T22:57:33.661Z,102455.47
2022-08-10T23:00:14.581Z,102460.88
2022-08-10T23:02:53.546Z,102456.50
2022-08-10T23:05:31.720Z,102460.97
2022-08-10T23:08:10.859Z,102464.59
2022-08-10T23:10:48.950Z,102460.19
2022-08-10T23:13:26.397Z,102462.00
2022-08-10T23:16:29.093Z,102466.50
2022-08-10T23:19:10.384Z,102473.66
2022-08-10T23:22:04.507Z,102471.03
2022-08-10T23:24:37.350Z,102464.84
2022-08-10T23:27:13.141Z,102464.03
2022-08-10T23:30:03.858Z,102459.63
2022-08-10T23:32:43.283Z,102462.31
2022-08-10T23:37:56.776Z,102453.56
2022-08-10T23:40:26.511Z,102452.66
2022-08-10T23:42:55.554Z,102454.44
2022-08-10T23:45:27.866Z,102454.50
2022-08-10T23:48:01.906Z,102445.69
2022-08-10T23:50:30.970Z,102442.16
2022-08-10T23:53:13.706Z,102450.16
2022-08-10T23:55:49.542Z,102450.22
2022-08-10T23:58:31.579Z,102444.03
